Weather at 22nd Air Base

Public forecast

Using degrees Celsius for public forecast. Weather courtesy of forecast.io.

Closest aviation weather report (METAR) to 22nd Air Base

Closest report is Gdańsk Lech Wałęsa Airport, 31.5 nm (58.4 km) NW.

2024/05/18 09:00 (retrieved 32 minutes ago)

EPGD 180900Z 13011KT CAVOK 20/06 Q1016

Closest aviation forecast (TAF) to 22nd Air Base

Closest forecast is Gdańsk Lech Wałęsa Airport, 31.5 nm (58.4 km) NW.

2024/05/18 06:33 (retrieved 3 hours ago)

TAF TAF EPGD 180530Z 1806/1906 VRB02KT CAVOK BECMG 1806/1809 13010KT TEMPO 1809/1817 14017G27KT BECMG 1820/1823 VRB02KT